createdAt,value
2019-04-25T00:01:13.988Z,99878.92
2019-04-25T00:03:43.714Z,99880.11
2019-04-25T00:06:12.570Z,99877.20
2019-04-25T00:08:41.316Z,99883.83
2019-04-25T00:11:11.697Z,99876.70
2019-04-25T00:13:41.395Z,99873.68
2019-04-25T00:16:11.612Z,99871.28
2019-04-25T00:18:40.136Z,99875.39
2019-04-25T00:21:26.559Z,99855.24
2019-04-25T00:24:12.688Z,99875.20
2019-04-25T00:26:48.654Z,99873.39
2019-04-25T00:29:16.931Z,99879.53
2019-04-25T00:31:45.817Z,99871.53
2019-04-25T00:34:14.061Z,99874.59
2019-04-25T00:36:43.484Z,99865.02
2019-04-25T00:39:12.206Z,99861.61
2019-04-25T00:41:41.638Z,99862.38
2019-04-25T00:44:12.023Z,99854.14
2019-04-25T00:46:44.796Z,99855.23
2019-04-25T00:49:10.368Z,99856.27
2019-04-25T00:51:38.650Z,99855.17
2019-04-25T00:54:06.876Z,99859.17
2019-04-25T00:56:35.086Z,99855.44
2019-04-25T00:59:11.857Z,99876.26
2019-04-25T01:02:01.674Z,99859.59
2019-04-25T01:04:31.605Z,99848.78
2019-04-25T01:07:01.490Z,99860.70
2019-04-25T01:09:30.190Z,99865.02
2019-04-25T01:11:58.394Z,99872.54
2019-04-25T01:14:26.777Z,99865.07
2019-04-25T01:16:54.986Z,99867.08
2019-04-25T01:19:23.519Z,99862.56
2019-04-25T01:21:51.957Z,99874.92
2019-04-25T01:24:20.204Z,99869.49
2019-04-25T01:26:48.448Z,99869.02
2019-04-25T01:29:16.720Z,99869.46
2019-04-25T01:31:46.493Z,99867.69
2019-04-25T01:34:16.355Z,99872.20
2019-04-25T01:36:49.189Z,99871.03
2019-04-25T01:39:37.140Z,99876.36
2019-04-25T01:42:13.823Z,99870.86
2019-04-25T01:44:46.171Z,99862.55
2019-04-25T01:47:14.522Z,99856.22
2019-04-25T01:49:43.892Z,99856.83
2019-04-25T01:52:13.685Z,99867.78
2019-04-25T01:54:43.656Z,99872.91
2019-04-25T01:57:14.235Z,99876.76
2019-04-25T01:59:43.854Z,99877.73
2019-04-25T02:02:14.090Z,99874.78
2019-04-25T02:04:42.360Z,99879.42
2019-04-25T02:07:10.632Z,99883.74
2019-04-25T02:09:38.865Z,99891.21
2019-04-25T02:12:11.464Z,99891.44
2019-04-25T02:14:39.697Z,99897.34
2019-04-25T02:17:08.001Z,99896.81
2019-04-25T02:19:36.204Z,99901.30
2019-04-25T02:22:04.474Z,99894.63
2019-04-25T02:24:33.913Z,99881.56
2019-04-25T02:27:04.596Z,99889.83
2019-04-25T02:29:33.247Z,99886.20
2019-04-25T02:32:07.885Z,99890.92
2019-04-25T02:34:34.373Z,99900.05
2019-04-25T02:37:05.670Z,99901.05
2019-04-25T02:39:36.740Z,99905.18
2019-04-25T02:42:06.274Z,99908.61
2019-04-25T02:44:34.565Z,99908.70
2019-04-25T02:47:08.388Z,99912.58
2019-04-25T02:49:45.254Z,99908.48
2019-04-25T02:52:24.814Z,99910.59
2019-04-25T02:54:55.740Z,99901.81
2019-04-25T02:57:25.077Z,99906.92
2019-04-25T02:59:54.736Z,99914.27
2019-04-25T03:02:24.748Z,99909.94
2019-04-25T03:04:54.571Z,99895.25
2019-04-25T03:07:24.548Z,99905.80
2019-04-25T03:09:54.703Z,99892.23
2019-04-25T03:12:32.323Z,99896.46
2019-04-25T03:14:54.965Z,99898.17
2019-04-25T03:17:24.633Z,99900.08
2019-04-25T03:20:11.969Z,99891.45
2019-04-25T03:22:40.657Z,99886.73
2019-04-25T03:25:13.111Z,99878.95
2019-04-25T03:27:38.787Z,99871.37
2019-04-25T03:30:11.821Z,99885.67
2019-04-25T03:32:38.078Z,99883.53
2019-04-25T03:35:07.159Z,99887.08
2019-04-25T03:37:35.519Z,99882.72
2019-04-25T03:40:07.881Z,99879.23
2019-04-25T03:42:36.183Z,99881.45
2019-04-25T03:45:06.055Z,99847.67
2019-04-25T03:47:34.385Z,99892.24
2019-04-25T03:50:05.582Z,99895.91
2019-04-25T03:52:33.060Z,99904.59
2019-04-25T03:55:05.173Z,99904.64
2019-04-25T03:57:33.139Z,99909.19
2019-04-25T04:00:03.577Z,99910.21
2019-04-25T04:02:31.796Z,99915.09
2019-04-25T04:05:00.026Z,99919.64
2019-04-25T04:07:28.267Z,99920.26
2019-04-25T04:09:56.525Z,99919.33
2019-04-25T04:12:24.708Z,99909.52
2019-04-25T04:14:53.742Z,99911.17
2019-04-25T04:17:43.704Z,99901.85
2019-04-25T04:20:14.770Z,99898.43
2019-04-25T04:22:45.349Z,99900.95
2019-04-25T04:25:15.962Z,99903.25
2019-04-25T04:27:45.106Z,99905.20
2019-04-25T04:30:14.479Z,99905.95
2019-04-25T04:32:44.175Z,99898.86
2019-04-25T04:35:14.465Z,99903.75
2019-04-25T04:37:43.143Z,99902.66
2019-04-25T04:40:11.831Z,99909.37
2019-04-25T04:42:40.023Z,99925.45
2019-04-25T04:45:08.484Z,99922.03
2019-04-25T04:47:36.751Z,99912.89
2019-04-25T04:50:05.900Z,99911.68
2019-04-25T04:52:34.152Z,99915.81
2019-04-25T04:55:06.317Z,99934.14
2019-04-25T04:57:35.853Z,99930.59
2019-04-25T05:00:03.669Z,99916.56
2019-04-25T05:02:45.984Z,99917.72
2019-04-25T05:05:19.118Z,99918.09
2019-04-25T05:07:49.228Z,99924.97
2019-04-25T05:10:18.802Z,99923.25
2019-04-25T05:12:47.488Z,99913.80
2019-04-25T05:15:16.935Z,99910.59
2019-04-25T05:17:45.691Z,99910.59
2019-04-25T05:20:15.994Z,99908.54
2019-04-25T05:22:44.531Z,99913.02
2019-04-25T05:25:15.283Z,99906.05
2019-04-25T05:27:57.623Z,99903.19
2019-04-25T05:30:16.534Z,99900.51
2019-04-25T05:32:44.417Z,99898.70
2019-04-25T05:35:14.087Z,99898.17
2019-04-25T05:37:43.587Z,99913.45
2019-04-25T05:40:13.445Z,99938.31
2019-04-25T05:42:49.180Z,99933.66
2019-04-25T05:45:19.908Z,99926.90
2019-04-25T05:47:48.251Z,99931.97
2019-04-25T05:50:16.460Z,99945.41
2019-04-25T05:52:47.323Z,99950.73
2019-04-25T05:55:17.292Z,99955.69
2019-04-25T05:57:49.978Z,99951.70
2019-04-25T06:00:17.481Z,99947.53
2019-04-25T06:02:46.181Z,99960.20
2019-04-25T06:05:14.484Z,99971.05
2019-04-25T06:07:43.226Z,99975.10
2019-04-25T06:10:14.388Z,99979.40
2019-04-25T06:12:47.220Z,99982.14
2019-04-25T06:15:15.435Z,99983.95
2019-04-25T06:17:45.335Z,99980.83
2019-04-25T06:20:15.000Z,99972.49
2019-04-25T06:22:54.148Z,99970.63
2019-04-25T06:25:29.307Z,99971.37
2019-04-25T06:28:10.573Z,99967.66
2019-04-25T06:30:38.157Z,99974.81
2019-04-25T06:33:06.575Z,99972.01
2019-04-25T06:35:35.882Z,99976.89
2019-04-25T06:38:04.306Z,99979.64
2019-04-25T06:40:34.422Z,99993.13
2019-04-25T06:43:03.388Z,99995.45
2019-04-25T06:45:50.234Z,99992.13
2019-04-25T06:48:24.682Z,99995.48
2019-04-25T06:50:55.807Z,99986.59
2019-04-25T06:53:25.661Z,100000.15
2019-04-25T06:55:53.944Z,100005.52
2019-04-25T06:58:23.269Z,100004.10
2019-04-25T07:00:58.703Z,99998.59
2019-04-25T07:03:22.898Z,100002.64
2019-04-25T07:05:53.517Z,100013.70
2019-04-25T07:08:23.745Z,100025.89
2019-04-25T07:10:51.815Z,100024.38
2019-04-25T07:13:20.032Z,100031.94
2019-04-25T07:15:48.235Z,100027.18
2019-04-25T07:18:16.443Z,100009.53
2019-04-25T07:20:45.369Z,100003.31
2019-04-25T07:23:13.700Z,100003.71
2019-04-25T07:25:43.786Z,100011.25
2019-04-25T07:28:24.069Z,99998.69
2019-04-25T07:30:52.691Z,99997.78
2019-04-25T07:33:27.171Z,100007.42
2019-04-25T07:35:56.855Z,100007.09
2019-04-25T07:38:25.637Z,100012.50
2019-04-25T07:40:53.907Z,99913.71
2019-04-25T07:43:23.337Z,100018.99
2019-04-25T07:45:53.417Z,100016.97
2019-04-25T07:48:23.225Z,100021.19
2019-04-25T07:50:51.758Z,100024.39
2019-04-25T07:53:19.971Z,100019.33
2019-04-25T07:55:48.186Z,100014.05
2019-04-25T07:58:16.398Z,100018.62
2019-04-25T08:00:44.615Z,100015.73
2019-04-25T08:03:13.782Z,100027.12
2019-04-25T08:05:44.004Z,100036.03
2019-04-25T08:08:13.564Z,100035.19
2019-04-25T08:10:57.263Z,100034.39
2019-04-25T08:13:27.750Z,100028.37
2019-04-25T08:16:03.297Z,100028.98
2019-04-25T08:18:31.594Z,100027.92
2019-04-25T08:20:59.815Z,100040.86
2019-04-25T08:23:29.048Z,100037.91
2019-04-25T08:25:57.969Z,100043.74
2019-04-25T08:28:26.209Z,100038.88
2019-04-25T08:30:55.022Z,100035.81
2019-04-25T08:33:23.745Z,100037.05
2019-04-25T08:36:04.432Z,100040.33
2019-04-25T08:38:23.769Z,100039.67
2019-04-25T08:40:52.076Z,100032.48
2019-04-25T08:43:20.299Z,100044.53
2019-04-25T08:45:48.507Z,100039.41
2019-04-25T08:48:16.736Z,100043.75
2019-04-25T08:50:58.260Z,100056.76
2019-04-25T08:53:28.174Z,100056.48
2019-04-25T08:55:58.017Z,100057.28
2019-04-25T08:58:43.674Z,100043.35
2019-04-25T09:01:36.542Z,100050.06
2019-04-25T09:04:06.975Z,100039.97
2019-04-25T09:06:37.095Z,100044.94
2019-04-25T09:09:07.212Z,100055.05
2019-04-25T09:11:38.003Z,100054.40
2019-04-25T09:14:06.334Z,100049.61
2019-04-25T09:16:35.795Z,100050.55
2019-04-25T09:19:04.686Z,100050.69
2019-04-25T09:21:34.200Z,100053.22
2019-04-25T09:24:03.344Z,100057.95
2019-04-25T09:26:31.601Z,100050.98
2019-04-25T09:28:59.835Z,100039.22
2019-04-25T09:31:28.067Z,100028.84
2019-04-25T09:33:56.924Z,100030.98
2019-04-25T09:36:25.167Z,100016.50
2019-04-25T09:38:55.050Z,100023.91
2019-04-25T09:41:23.726Z,100020.16
2019-04-25T09:43:54.954Z,100024.94
2019-04-25T09:46:24.940Z,100016.05
2019-04-25T09:49:00.863Z,100034.60
2019-04-25T09:51:30.735Z,100043.63
2019-04-25T09:54:00.582Z,100036.50
2019-04-25T09:56:30.455Z,100038.74
2019-04-25T09:59:08.867Z,100032.55
2019-04-25T10:01:37.925Z,100039.58
2019-04-25T10:04:06.325Z,100041.92
2019-04-25T10:06:34.517Z,100039.67
2019-04-25T10:09:05.000Z,100035.96
2019-04-25T10:11:33.530Z,100032.25
2019-04-25T10:14:27.702Z,100029.67
2019-04-25T10:16:55.941Z,100027.69
2019-04-25T10:19:25.683Z,100022.26
2019-04-25T10:21:55.265Z,100012.32
2019-04-25T10:24:23.577Z,100016.19
2019-04-25T10:26:53.536Z,100018.97
2019-04-25T10:29:21.797Z,100018.91
2019-04-25T10:31:50.027Z,100018.66
2019-04-25T10:34:18.251Z,100020.30
2019-04-25T10:36:46.842Z,100020.91
2019-04-25T10:39:15.139Z,100020.45
2019-04-25T10:41:46.111Z,100019.38
2019-04-25T10:44:14.140Z,100012.07
2019-04-25T10:46:42.423Z,100014.89
2019-04-25T10:49:10.652Z,100028.52
2019-04-25T10:51:38.853Z,100017.70
2019-04-25T10:54:07.074Z,100028.67
2019-04-25T10:56:35.272Z,100035.76
2019-04-25T10:59:04.224Z,100033.00
2019-04-25T11:01:33.885Z,100034.88
2019-04-25T11:04:04.740Z,100032.13
2019-04-25T11:06:33.638Z,100028.03
2019-04-25T11:09:03.484Z,100023.47
2019-04-25T11:11:31.801Z,100014.63
2019-04-25T11:14:00.030Z,100009.41
2019-04-25T11:16:28.258Z,100005.27
2019-04-25T11:18:56.563Z,100006.55
2019-04-25T11:21:24.771Z,100001.73
2019-04-25T11:23:55.160Z,100018.45
2019-04-25T11:26:23.381Z,100015.72
2019-04-25T11:28:51.663Z,100010.25
2019-04-25T11:31:23.371Z,100018.03
2019-04-25T11:33:51.555Z,100005.06
2019-04-25T11:36:19.741Z,99983.78
2019-04-25T11:39:07.390Z,99978.20
2019-04-25T11:41:38.529Z,99980.11
2019-04-25T11:44:06.745Z,99965.69
2019-04-25T11:46:34.956Z,99963.36
2019-04-25T11:49:04.835Z,99963.77
2019-04-25T11:51:34.083Z,99956.19
2019-04-25T11:54:03.617Z,99964.48
2019-04-25T11:56:31.915Z,99954.06
2019-04-25T11:59:00.139Z,99872.03
2019-04-25T12:01:28.927Z,99944.89
2019-04-25T12:03:57.126Z,99945.14
2019-04-25T12:06:25.359Z,99936.64
2019-04-25T12:08:55.164Z,99943.81
2019-04-25T12:11:23.783Z,99950.70
2019-04-25T12:13:53.807Z,99950.89
2019-04-25T12:16:22.275Z,99962.84
2019-04-25T12:18:51.697Z,99948.27
2019-04-25T12:21:20.009Z,99951.27
2019-04-25T12:23:48.762Z,99945.50
2019-04-25T12:26:17.014Z,99945.85
2019-04-25T12:28:45.935Z,99955.14
2019-04-25T12:31:14.825Z,99946.17
2019-04-25T12:33:43.403Z,99940.23
2019-04-25T12:36:13.627Z,99944.76
2019-04-25T12:38:41.876Z,99943.19
2019-04-25T12:41:10.216Z,99938.31
2019-04-25T12:43:40.064Z,99952.83
2019-04-25T12:46:12.328Z,99948.11
2019-04-25T12:48:40.552Z,99944.91
2019-04-25T12:51:08.778Z,99936.44
2019-04-25T12:53:36.976Z,99936.25
2019-04-25T12:56:05.230Z,99935.02
2019-04-25T12:58:33.559Z,99848.67
2019-04-25T13:01:01.948Z,99938.45
2019-04-25T13:03:30.123Z,99941.85
2019-04-25T13:05:58.449Z,99945.88
2019-04-25T13:08:26.641Z,99953.23
2019-04-25T13:11:07.350Z,99952.09
2019-04-25T13:13:24.899Z,99956.13
2019-04-25T13:15:53.337Z,99850.09
2019-04-25T13:18:21.610Z,99954.73
2019-04-25T13:20:49.835Z,99961.66
2019-04-25T13:23:18.635Z,99968.84
2019-04-25T13:25:46.877Z,99966.66
2019-04-25T13:28:25.625Z,99917.87
2019-04-25T13:31:10.386Z,99959.00
2019-04-25T13:33:39.110Z,99954.59
2019-04-25T13:36:11.896Z,99968.41
2019-04-25T13:38:40.126Z,99970.66
2019-04-25T13:41:08.334Z,99979.03
2019-04-25T13:43:36.568Z,99971.01
2019-04-25T13:46:04.748Z,99976.67
2019-04-25T13:48:34.699Z,99977.63
2019-04-25T13:51:04.100Z,99972.27
2019-04-25T13:53:34.032Z,99975.18
2019-04-25T13:56:03.297Z,99971.39
2019-04-25T13:58:32.275Z,99968.94
2019-04-25T14:01:12.285Z,99970.64
2019-04-25T14:03:33.653Z,99973.23
2019-04-25T14:06:01.562Z,99963.48
2019-04-25T14:08:29.780Z,99972.00
2019-04-25T14:10:58.060Z,99972.94
2019-04-25T14:13:26.560Z,99970.45
2019-04-25T14:15:58.852Z,99977.07
2019-04-25T14:18:34.627Z,99976.69
2019-04-25T14:21:13.343Z,99982.55
2019-04-25T14:23:41.549Z,99993.41
2019-04-25T14:26:09.758Z,99996.73
2019-04-25T14:28:39.205Z,99990.01
2019-04-25T14:31:09.057Z,100001.39
2019-04-25T14:33:37.274Z,99993.92
2019-04-25T14:36:05.481Z,99993.91
2019-04-25T14:38:34.220Z,99989.27
2019-04-25T14:41:04.061Z,99884.76
2019-04-25T14:43:32.342Z,99990.97
2019-04-25T14:46:01.207Z,99993.13
2019-04-25T14:48:29.443Z,99996.39
2019-04-25T14:50:57.636Z,100004.18
2019-04-25T14:53:25.915Z,100001.14
2019-04-25T14:56:01.232Z,100007.05
2019-04-25T14:58:31.105Z,100009.00
2019-04-25T15:00:59.509Z,100007.79
2019-04-25T15:03:27.729Z,100005.61
2019-04-25T15:05:55.959Z,100018.39
2019-04-25T15:08:24.947Z,100009.78
2019-04-25T15:10:53.157Z,99928.73
2019-04-25T15:13:21.358Z,100019.91
2019-04-25T15:15:49.654Z,100015.73
2019-04-25T15:18:17.935Z,100011.77
2019-04-25T15:20:46.152Z,100015.47
2019-04-25T15:23:14.366Z,100016.62
2019-04-25T15:25:42.660Z,100016.44
2019-04-25T15:28:10.867Z,100020.97
2019-04-25T15:30:39.966Z,100014.80
2019-04-25T15:33:08.181Z,100018.32
2019-04-25T15:35:38.053Z,100020.97
2019-04-25T15:38:10.796Z,100020.97
2019-04-25T15:40:41.202Z,100015.83
2019-04-25T15:43:27.683Z,100030.66
2019-04-25T15:46:03.988Z,100039.75
2019-04-25T15:48:33.184Z,100033.19
2019-04-25T15:51:01.671Z,100028.20
2019-04-25T15:53:30.674Z,100027.03
2019-04-25T15:55:58.884Z,100023.47
2019-04-25T15:58:27.627Z,100019.48
2019-04-25T16:00:57.185Z,100026.09
2019-04-25T16:03:25.406Z,100017.59
2019-04-25T16:05:53.638Z,100009.33
2019-04-25T16:08:21.841Z,100017.98
2019-04-25T16:10:50.065Z,100011.34
2019-04-25T16:13:18.289Z,100008.50
2019-04-25T16:15:46.496Z,100019.45
2019-04-25T16:18:14.814Z,100025.37
2019-04-25T16:20:42.987Z,100030.69
2019-04-25T16:23:11.281Z,100029.81
2019-04-25T16:25:39.496Z,100033.28
2019-04-25T16:28:07.721Z,100039.94
2019-04-25T16:30:36.517Z,100037.64
2019-04-25T16:33:04.724Z,100042.61
2019-04-25T16:35:33.428Z,100051.81
2019-04-25T16:38:01.805Z,100060.73
2019-04-25T16:40:30.024Z,100068.92
2019-04-25T16:42:59.890Z,100073.71
2019-04-25T16:45:28.944Z,100070.95
2019-04-25T16:47:58.207Z,100076.46
2019-04-25T16:50:26.896Z,100081.94
2019-04-25T16:52:55.124Z,100084.66
2019-04-25T16:55:23.489Z,99976.09
2019-04-25T16:57:51.740Z,100088.55
2019-04-25T17:00:40.805Z,100111.84
2019-04-25T17:03:09.146Z,100108.56
2019-04-25T17:05:37.402Z,100113.68
2019-04-25T17:08:06.002Z,100110.66
2019-04-25T17:10:34.810Z,100107.72
2019-04-25T17:13:03.111Z,100097.52
2019-04-25T17:15:32.956Z,100113.18
2019-04-25T17:18:02.810Z,100120.25
2019-04-25T17:20:32.674Z,100128.15
2019-04-25T17:23:00.893Z,100128.08
2019-04-25T17:25:30.128Z,100126.79
2019-04-25T17:27:59.055Z,100138.14
2019-04-25T17:30:28.909Z,100137.33
2019-04-25T17:33:04.650Z,100125.25
2019-04-25T17:35:34.500Z,100136.28
2019-04-25T17:38:10.385Z,100143.08
2019-04-25T17:40:38.581Z,100144.92
2019-04-25T17:43:11.336Z,100145.23
2019-04-25T17:45:37.028Z,100148.22
2019-04-25T17:48:05.423Z,100137.69
2019-04-25T17:50:34.251Z,100134.08
2019-04-25T17:53:02.530Z,100128.20
2019-04-25T17:55:30.753Z,100126.22
2019-04-25T17:57:58.995Z,100136.11
2019-04-25T18:00:29.089Z,100132.30
2019-04-25T18:02:59.003Z,100131.98
2019-04-25T18:05:27.411Z,100143.61
2019-04-25T18:07:55.659Z,100140.08
2019-04-25T18:10:23.884Z,100132.78
2019-04-25T18:12:52.102Z,100130.83
2019-04-25T18:15:27.681Z,100142.97
2019-04-25T18:17:55.941Z,100147.38
2019-04-25T18:20:27.016Z,100127.45
2019-04-25T18:23:02.304Z,100140.63
2019-04-25T18:25:32.168Z,100033.61
2019-04-25T18:28:10.834Z,100185.78
2019-04-25T18:30:39.218Z,100093.78
2019-04-25T18:33:21.059Z,100198.58
2019-04-25T18:35:51.400Z,100209.67
2019-04-25T18:38:25.512Z,100201.11
2019-04-25T18:40:55.536Z,100205.56
2019-04-25T18:43:31.424Z,100206.45
2019-04-25T18:46:01.296Z,100212.70
2019-04-25T18:48:29.787Z,100205.66
2019-04-25T18:50:58.041Z,100187.33
2019-04-25T18:53:43.089Z,100185.65
2019-04-25T18:56:15.670Z,100199.03
2019-04-25T18:58:48.248Z,100222.34
2019-04-25T19:01:24.065Z,100221.70
2019-04-25T19:03:53.901Z,100251.83
2019-04-25T19:06:23.797Z,100246.51
2019-04-25T19:08:53.237Z,100258.28
2019-04-25T19:11:21.871Z,100253.95
2019-04-25T19:13:50.069Z,100249.77
2019-04-25T19:16:18.294Z,100241.46
2019-04-25T19:18:47.177Z,100233.23
2019-04-25T19:21:16.311Z,100215.76
2019-04-25T19:23:44.513Z,100217.77
2019-04-25T19:26:12.740Z,100223.80
2019-04-25T19:28:41.037Z,100219.65
2019-04-25T19:31:09.245Z,100216.41
2019-04-25T19:33:37.724Z,100217.44
2019-04-25T19:36:05.953Z,100230.15
2019-04-25T19:38:34.153Z,100221.67
2019-04-25T19:41:04.007Z,100245.56
2019-04-25T19:43:36.529Z,100264.40
2019-04-25T19:46:04.755Z,100285.45
2019-04-25T19:48:32.953Z,100291.16
2019-04-25T19:51:01.182Z,100305.45
2019-04-25T19:53:29.398Z,100308.19
2019-04-25T19:55:57.610Z,100312.34
2019-04-25T19:58:25.839Z,100322.05
2019-04-25T20:00:54.106Z,100317.95
2019-04-25T20:03:49.534Z,100318.36
2019-04-25T20:06:19.006Z,100318.92
2019-04-25T20:08:57.426Z,100320.23
2019-04-25T20:11:29.949Z,100334.06
2019-04-25T20:13:58.171Z,100338.43
2019-04-25T20:16:26.972Z,100340.11
2019-04-25T20:18:55.202Z,100338.95
2019-04-25T20:21:23.401Z,100332.97
2019-04-25T20:23:52.128Z,100339.70
2019-04-25T20:26:20.400Z,100342.86
2019-04-25T20:28:48.626Z,100342.45
2019-04-25T20:31:16.841Z,100330.97
2019-04-25T20:33:46.849Z,100340.11
2019-04-25T20:36:18.056Z,100335.14
2019-04-25T20:38:45.880Z,100338.57
2019-04-25T20:41:14.615Z,100353.77
2019-04-25T20:43:42.786Z,100357.80
2019-04-25T20:46:11.000Z,100336.40
2019-04-25T20:48:39.208Z,100337.58
2019-04-25T20:51:07.422Z,100357.45
2019-04-25T20:53:35.629Z,100366.48
2019-04-25T20:56:03.841Z,100344.40
2019-04-25T20:58:32.079Z,100324.33
2019-04-25T21:01:01.882Z,100342.89
2019-04-25T21:03:30.130Z,100341.58
2019-04-25T21:05:59.987Z,100345.95
2019-04-25T21:08:28.201Z,100350.50
2019-04-25T21:10:56.412Z,100328.66
2019-04-25T21:13:35.025Z,100345.39
2019-04-25T21:16:14.029Z,100371.47
2019-04-25T21:18:56.100Z,100376.21
2019-04-25T21:21:24.387Z,100327.20
2019-04-25T21:23:53.037Z,100319.44
2019-04-25T21:26:22.418Z,100300.61
2019-04-25T21:28:51.004Z,100291.36
2019-04-25T21:31:19.631Z,100308.70
2019-04-25T21:33:47.892Z,100316.73
2019-04-25T21:36:19.809Z,100303.38
2019-04-25T21:38:48.094Z,100324.91
2019-04-25T21:41:36.210Z,100328.66
2019-04-25T21:44:05.525Z,100327.03
2019-04-25T21:46:34.138Z,100318.13
2019-04-25T21:49:11.024Z,100306.48
2019-04-25T21:51:39.208Z,100293.39
2019-04-25T21:54:07.414Z,100319.70
2019-04-25T21:56:37.651Z,100365.80
2019-04-25T21:59:06.275Z,100374.81
2019-04-25T22:01:39.271Z,100373.70
2019-04-25T22:04:07.473Z,100382.20
2019-04-25T22:06:35.879Z,100387.84
2019-04-25T22:09:10.743Z,100398.38
2019-04-25T22:11:40.010Z,100380.55
2019-04-25T22:14:09.255Z,100384.49
2019-04-25T22:16:37.787Z,100358.89
2019-04-25T22:19:06.386Z,100344.75
2019-04-25T22:21:38.363Z,100325.63
2019-04-25T22:24:12.833Z,100322.34
2019-04-25T22:26:34.938Z,100323.42
2019-04-25T22:29:03.559Z,100327.18
2019-04-25T22:31:39.208Z,100334.84
2019-04-25T22:34:14.725Z,100339.80
2019-04-25T22:36:43.190Z,100326.62
2019-04-25T22:39:11.898Z,100323.30
2019-04-25T22:41:42.216Z,100301.02
2019-04-25T22:44:15.469Z,100290.69
2019-04-25T22:46:44.016Z,100297.31
2019-04-25T22:49:12.354Z,100296.19
2019-04-25T22:51:40.576Z,100297.81
2019-04-25T22:54:09.486Z,100306.55
2019-04-25T22:56:37.842Z,100297.09
2019-04-25T22:59:06.887Z,100283.48
2019-04-25T23:01:39.746Z,100295.77
2019-04-25T23:04:26.016Z,100342.43
2019-04-25T23:06:54.309Z,100351.96
2019-04-25T23:09:22.506Z,100354.22
2019-04-25T23:11:51.041Z,100355.79
2019-04-25T23:14:20.642Z,100353.20
2019-04-25T23:16:48.849Z,100347.84
2019-04-25T23:19:17.102Z,100342.76
2019-04-25T23:21:45.473Z,100360.41
2019-04-25T23:24:14.965Z,100365.99
2019-04-25T23:26:44.988Z,100370.25
2019-04-25T23:29:13.237Z,100365.92
2019-04-25T23:31:41.515Z,100368.48
2019-04-25T23:34:10.826Z,100369.61
2019-04-25T23:36:39.156Z,100362.33
2019-04-25T23:39:09.398Z,100365.20
2019-04-25T23:41:40.984Z,100362.17
2019-04-25T23:44:10.119Z,100371.84
2019-04-25T23:46:38.641Z,100331.61
2019-04-25T23:49:07.892Z,100383.41
2019-04-25T23:51:36.952Z,100373.07
2019-04-25T23:54:05.169Z,100374.44
2019-04-25T23:56:33.379Z,100366.95
2019-04-25T23:59:01.875Z,100365.25
